Time;durP1;ratioP1;P1;durP2;ratioP2;P2;SDS_P1;SDS_P2;PMS_P1;PMS_P2;Temp;Humidity;BMP_temperature;BMP_pressure;BME280_temperature;BME280_humidity;BME280_pressure;Samples;Min_cycle;Max_cycle;Signal;HPM_P1;HPM_P2
2021/03/18 00:01:11;;;;;;;1999.90;999.90;;;2.40;99.90;;;;;;4987913;28;20554;-70
2021/03/18 00:03:40;;;;;;;1999.90;999.90;;;2.40;99.90;;;;;;5005595;28;20088;-70
2021/03/18 00:06:09;;;;;;;1999.90;999.90;;;2.30;99.90;;;;;;5010302;28;20053;-70
2021/03/18 00:08:35;;;;;;;1999.90;999.90;;;2.30;99.90;;;;;;5007793;28;20137;-70
2021/03/18 00:11:08;;;;;;;1999.90;999.90;;;2.30;99.90;;;;;;5007960;28;20129;-69
2021/03/18 00:13:35;;;;;;;1999.90;999.90;;;2.30;99.90;;;;;;4998660;28;20046;-69
2021/03/18 00:16:02;;;;;;;1999.90;999.90;;;2.20;99.90;;;;;;5007515;28;20057;-70
2021/03/18 00:18:31;;;;;;;1999.90;999.90;;;2.20;99.90;;;;;;5014764;28;20153;-70
2021/03/18 00:21:00;;;;;;;;;;;2.20;99.90;;;;;;5007350;28;20042;-69
2021/03/18 00:23:30;;;;;;;1999.90;999.90;;;2.10;99.90;;;;;;5009235;28;20035;-69
2021/03/18 00:25:57;;;;;;;1999.90;999.90;;;2.10;99.90;;;;;;5014607;28;20053;-69
2021/03/18 00:28:23;;;;;;;1999.90;999.90;;;2.10;99.90;;;;;;5011916;28;20080;-69
2021/03/18 00:30:50;;;;;;;1999.90;999.90;;;2.10;99.90;;;;;;5005996;28;20050;-70
2021/03/18 00:33:17;;;;;;;1999.90;999.90;;;2.10;99.90;;;;;;5005431;28;20054;-70
2021/03/18 00:35:44;;;;;;;1999.90;999.90;;;2.00;99.90;;;;;;5011070;28;20081;-70
2021/03/18 00:38:10;;;;;;;1999.90;999.90;;;2.00;99.90;;;;;;4996052;28;20042;-69
2021/03/18 00:40:43;;;;;;;1999.90;999.90;;;1.90;99.90;;;;;;5009659;28;20132;-70
2021/03/18 00:43:15;;;;;;;1999.90;999.90;;;1.90;99.90;;;;;;5008118;28;20177;-69
2021/03/18 00:45:44;;;;;;;1999.90;999.90;;;1.80;99.90;;;;;;4991353;28;20046;-69
2021/03/18 00:48:12;;;;;;;1999.90;999.90;;;1.80;99.90;;;;;;5006571;28;20092;-69
2021/03/18 00:50:44;;;;;;;1999.90;999.90;;;1.80;99.90;;;;;;5005777;28;20069;-70
2021/03/18 00:53:13;;;;;;;1999.90;999.90;;;1.70;99.90;;;;;;5093044;28;20053;-70
2021/03/18 00:55:39;;;;;;;;;;;1.70;99.90;;;;;;5006711;28;20056;-69
2021/03/18 00:58:06;;;;;;;1999.90;999.90;;;1.70;99.90;;;;;;4993025;28;20026;-70
2021/03/18 01:00:54;;;;;;;1999.90;999.90;;;1.70;99.90;;;;;;5003341;28;20039;-69
2021/03/18 01:03:24;;;;;;;1999.90;999.90;;;1.70;99.90;;;;;;5023753;28;20046;-69
2021/03/18 01:06:08;;;;;;;1999.90;999.90;;;1.70;99.90;;;;;;4994570;28;20392;-70
2021/03/18 01:08:35;;;;;;;1999.90;999.90;;;1.70;99.90;;;;;;5090882;27;20411;-69
2021/03/18 01:11:15;;;;;;;1999.90;999.90;;;1.70;99.90;;;;;;5010821;28;20481;-69
2021/03/18 01:13:45;;;;;;;1999.90;999.90;;;1.70;99.90;;;;;;5009425;28;20392;-70
2021/03/18 01:16:14;;;;;;;1999.90;999.90;;;1.60;99.90;;;;;;5013762;28;20070;-71
2021/03/18 01:18:45;;;;;;;1999.90;999.90;;;1.70;99.90;;;;;;5007414;28;20046;-69
2021/03/18 01:21:13;;;;;;;1999.90;999.90;;;1.70;99.90;;;;;;4999030;28;20079;-70
2021/03/18 01:23:40;;;;;;;1999.90;999.90;;;1.60;99.90;;;;;;5011442;28;20046;-70
2021/03/18 01:26:07;;;;;;;1999.90;999.90;;;1.60;99.90;;;;;;4997588;28;20138;-69
2021/03/18 01:28:34;;;;;;;1999.90;999.90;;;1.60;99.90;;;;;;5083089;28;20466;-69
2021/03/18 01:31:02;;;;;;;1999.90;999.90;;;1.60;99.90;;;;;;5016302;28;20050;-69
2021/03/18 01:33:28;;;;;;;1999.90;999.90;;;1.60;99.90;;;;;;4988408;28;20050;-70
2021/03/18 01:35:56;;;;;;;1999.90;999.90;;;1.60;99.90;;;;;;4987712;28;20054;-70
2021/03/18 01:38:22;;;;;;;1999.90;999.90;;;1.60;99.90;;;;;;4993890;28;20085;-70
2021/03/18 01:40:48;;;;;;;1999.90;999.90;;;1.60;99.90;;;;;;4991166;28;20141;-69
2021/03/18 01:43:15;;;;;;;1999.90;999.90;;;1.60;99.90;;;;;;4986258;28;20409;-69
2021/03/18 01:45:41;;;;;;;1999.90;999.90;;;1.60;99.90;;;;;;5001566;28;20919;-69
2021/03/18 01:48:08;;;;;;;1999.90;999.90;;;1.50;99.90;;;;;;4994784;28;20125;-69
2021/03/18 01:50:37;;;;;;;1999.90;999.90;;;1.50;99.90;;;;;;4996181;28;20050;-70
2021/03/18 01:53:04;;;;;;;1999.90;999.90;;;1.40;99.90;;;;;;4991211;28;20058;-69
2021/03/18 01:55:40;;;;;;;1999.90;999.90;;;1.50;99.90;;;;;;4992272;28;20721;-70
2021/03/18 01:58:07;;;;;;;1999.90;999.90;;;1.50;99.90;;;;;;4989766;28;20600;-70
2021/03/18 02:00:36;;;;;;;1999.90;999.90;;;1.50;99.90;;;;;;4989702;28;20052;-69
2021/03/18 02:03:03;;;;;;;1999.90;999.90;;;1.50;99.90;;;;;;4994124;28;20050;-69
2021/03/18 02:05:30;;;;;;;1999.90;999.90;;;1.50;99.90;;;;;;4993561;28;20069;-69
2021/03/18 02:07:57;;;;;;;1999.90;999.90;;;1.50;99.90;;;;;;4993598;28;20054;-70
2021/03/18 02:10:25;;;;;;;1999.90;999.90;;;1.40;99.90;;;;;;4992132;28;20054;-69
2021/03/18 02:12:51;;;;;;;1999.90;999.90;;;1.40;99.90;;;;;;4993465;28;20365;-70
2021/03/18 02:15:21;;;;;;;1999.90;999.90;;;1.50;99.90;;;;;;4990863;28;20136;-70
2021/03/18 02:18:20;;;;;;;1999.90;999.90;;;1.40;99.90;;;;;;4994693;28;20081;-69
2021/03/18 02:21:23;;;;;;;1999.90;999.90;;;1.40;99.90;;;;;;4995299;28;20384;-69
2021/03/18 02:23:55;;;;;;;1999.90;999.90;;;1.40;99.90;;;;;;4989952;28;20046;-69
2021/03/18 02:26:59;;;;;;;1999.90;999.90;;;1.40;99.90;;;;;;4988119;28;20046;-69
2021/03/18 02:29:43;;;;;;;1999.90;999.90;;;1.30;99.90;;;;;;4989876;28;20056;-70
2021/03/18 02:32:50;;;;;;;1999.90;999.90;;;1.30;99.90;;;;;;4995479;28;20052;-70
2021/03/18 02:35:33;;;;;;;1999.90;999.90;;;1.30;99.90;;;;;;4989313;28;20137;-69
2021/03/18 02:38:14;;;;;;;1999.90;999.90;;;1.30;99.90;;;;;;4992281;28;20126;-69
2021/03/18 02:40:53;;;;;;;1999.90;999.90;;;1.40;99.90;;;;;;5090165;27;20408;-70
2021/03/18 02:43:21;;;;;;;1999.90;999.90;;;1.40;99.90;;;;;;4999709;28;20405;-69
2021/03/18 02:45:50;;;;;;;1999.90;999.90;;;1.40;99.90;;;;;;5015079;28;20046;-69
2021/03/18 02:48:22;;;;;;;1999.90;999.90;;;1.30;99.90;;;;;;5006932;28;20060;-69
2021/03/18 02:50:54;;;;;;;1999.90;999.90;;;1.30;99.90;;;;;;5010549;28;20397;-70
2021/03/18 02:53:26;;;;;;;1999.90;999.90;;;1.30;99.90;;;;;;5007324;28;20061;-69
2021/03/18 02:55:53;;;;;;;1999.90;999.90;;;1.30;99.90;;;;;;4999351;28;20050;-70
2021/03/18 02:58:26;;;;;;;1999.90;999.90;;;1.30;99.90;;;;;;4994657;28;20137;-69
2021/03/18 03:00:56;;;;;;;1999.90;999.90;;;1.30;99.90;;;;;;5007785;28;20111;-69
2021/03/18 03:03:40;;;;;;;1999.90;999.90;;;1.30;99.90;;;;;;5005063;28;20474;-70
2021/03/18 03:06:12;;;;;;;1999.90;999.90;;;1.30;99.90;;;;;;5009674;28;20054;-69
2021/03/18 03:08:39;;;;;;;1999.90;999.90;;;1.30;99.90;;;;;;5003739;28;20042;-69
2021/03/18 03:11:07;;;;;;;1999.90;999.90;;;1.30;99.90;;;;;;5012588;28;20050;-69
2021/03/18 03:13:38;;;;;;;1999.90;999.90;;;1.30;99.90;;;;;;4989266;28;20053;-69
2021/03/18 03:16:07;;;;;;;1999.90;999.90;;;1.30;99.90;;;;;;5015742;28;20465;-69
2021/03/18 03:18:35;;;;;;;1999.90;999.90;;;1.20;99.90;;;;;;4991367;28;20052;-69
2021/03/18 03:21:03;;;;;;;1999.90;999.90;;;1.20;99.90;;;;;;5009707;28;20099;-69
2021/03/18 03:23:31;;;;;;;1999.90;999.90;;;1.20;99.90;;;;;;5007275;28;20053;-69
2021/03/18 03:25:59;;;;;;;1999.90;999.90;;;1.20;99.90;;;;;;4995649;28;20061;-69
2021/03/18 03:28:28;;;;;;;1999.90;999.90;;;1.20;99.90;;;;;;5008226;28;20437;-69
2021/03/18 03:30:56;;;;;;;1999.90;999.90;;;1.20;99.90;;;;;;5006149;28;20057;-69
2021/03/18 03:33:22;;;;;;;1999.90;999.90;;;1.20;99.90;;;;;;4992287;28;20084;-69
2021/03/18 03:35:50;;;;;;;1999.90;999.90;;;1.10;99.90;;;;;;4995341;28;20049;-69
2021/03/18 03:38:17;;;;;;;1999.90;999.90;;;1.20;99.90;;;;;;4994624;28;20057;-70
2021/03/18 03:40:44;;;;;;;1999.90;999.90;;;1.10;99.90;;;;;;5005099;28;20042;-69
2021/03/18 03:43:10;;;;;;;1999.90;999.90;;;1.20;99.90;;;;;;5008803;28;20555;-69
2021/03/18 03:45:37;;;;;;;1999.90;999.90;;;1.20;99.90;;;;;;5009422;28;20045;-69
2021/03/18 03:48:04;;;;;;;1999.90;999.90;;;1.20;99.90;;;;;;5011212;28;20074;-69
2021/03/18 03:50:31;;;;;;;1999.90;999.90;;;1.30;99.90;;;;;;5009296;28;20056;-69
2021/03/18 03:53:22;;;;;;;1999.90;999.90;;;1.30;99.90;;;;;;5013205;28;20159;-69
2021/03/18 03:56:27;;;;;;;1999.90;999.90;;;1.40;99.90;;;;;;5077799;28;20042;-69
2021/03/18 03:59:15;;;;;;;1999.90;999.90;;;1.40;99.90;;;;;;4999320;28;20099;-69
2021/03/18 04:01:56;;;;;;;1999.90;999.90;;;1.40;99.90;;;;;;4992768;28;20070;-69
2021/03/18 04:04:28;;;;;;;1999.90;999.90;;;1.50;99.90;;;;;;4989801;28;20138;-69
2021/03/18 04:07:00;;;;;;;1999.90;999.90;;;1.50;99.90;;;;;;5010119;28;20383;-69
2021/03/18 04:09:28;;;;;;;1999.90;999.90;;;1.50;99.90;;;;;;4992757;28;20053;-69
2021/03/18 04:11:56;;;;;;;1999.90;999.90;;;1.60;99.90;;;;;;5008123;28;20046;-69
2021/03/18 04:14:32;;;;;;;1999.90;999.90;;;1.60;99.90;;;;;;5003294;28;20050;-70
2021/03/18 04:17:04;;;;;;;1999.90;999.90;;;1.60;99.90;;;;;;5013093;28;20129;-69
2021/03/18 04:19:30;;;;;;;1999.90;999.90;;;1.70;99.90;;;;;;5007033;28;20083;-69
2021/03/18 04:21:57;;;;;;;1999.90;999.90;;;1.70;99.90;;;;;;4995289;28;20125;-69
2021/03/18 04:24:24;;;;;;;1999.90;999.90;;;1.80;99.90;;;;;;5009991;28;20038;-69
2021/03/18 04:26:52;;;;;;;1999.90;999.90;;;1.80;99.90;;;;;;5010988;28;20054;-69
2021/03/18 04:29:20;;;;;;;1999.90;999.90;;;1.90;99.90;;;;;;5006356;28;20076;-69
2021/03/18 04:31:47;;;;;;;1999.90;999.90;;;1.90;99.90;;;;;;5006053;28;20056;-69
2021/03/18 04:34:17;;;;;;;1999.90;999.90;;;1.90;99.90;;;;;;5012330;28;20054;-69
2021/03/18 04:36:44;;;;;;;1999.90;999.90;;;2.00;99.90;;;;;;5010790;28;20122;-70
2021/03/18 04:39:11;;;;;;;1999.90;999.90;;;2.00;99.90;;;;;;4996042;28;20058;-69
2021/03/18 04:41:37;;;;;;;1999.90;999.90;;;2.00;99.90;;;;;;4991365;28;20137;-69
2021/03/18 04:44:05;;;;;;;1999.90;999.90;;;2.00;99.90;;;;;;4989370;28;20061;-69
2021/03/18 04:46:33;;;;;;;1999.90;999.90;;;2.00;99.90;;;;;;5084878;27;20076;-69
2021/03/18 04:49:01;;;;;;;1999.90;999.90;;;2.00;99.90;;;;;;5014688;28;20133;-69
2021/03/18 04:51:28;;;;;;;1999.90;999.90;;;2.00;99.90;;;;;;5028975;28;20054;-69
2021/03/18 04:53:56;;;;;;;1999.90;999.90;;;2.00;99.90;;;;;;5010446;28;20079;-69
2021/03/18 04:56:24;;;;;;;1999.90;999.90;;;2.10;99.90;;;;;;5012239;28;20053;-70
2021/03/18 04:58:51;;;;;;;1999.90;999.90;;;2.10;99.90;;;;;;5011580;28;20088;-70
2021/03/18 05:01:19;;;;;;;1999.90;999.90;;;2.10;99.90;;;;;;5004120;28;20052;-70
2021/03/18 05:03:47;;;;;;;1999.90;999.90;;;2.20;99.90;;;;;;5009573;28;20057;-70
2021/03/18 05:06:14;;;;;;;1999.90;999.90;;;2.20;99.90;;;;;;4993026;28;20049;-70
2021/03/18 05:08:41;;;;;;;1999.90;999.90;;;2.20;99.90;;;;;;4999274;28;20048;-69
2021/03/18 05:11:11;;;;;;;1999.90;999.90;;;2.20;99.90;;;;;;4990503;28;20045;-70
2021/03/18 05:13:39;;;;;;;1999.90;999.90;;;2.20;99.90;;;;;;5008028;28;20046;-70
2021/03/18 05:16:06;;;;;;;1999.90;999.90;;;2.20;99.90;;;;;;5010716;28;20128;-70
2021/03/18 05:18:33;;;;;;;1999.90;999.90;;;2.20;99.90;;;;;;5009267;28;20042;-70
2021/03/18 05:21:04;;;;;;;1999.90;999.90;;;2.30;99.90;;;;;;5010238;28;20046;-70
2021/03/18 05:23:32;;;;;;;1999.90;999.90;;;2.30;99.90;;;;;;5013316;28;20360;-69
2021/03/18 05:25:59;;;;;;;1999.90;999.90;;;2.30;99.90;;;;;;5008318;28;20053;-70
2021/03/18 05:28:26;;;;;;;1999.90;999.90;;;2.30;99.90;;;;;;5007729;28;20045;-69
2021/03/18 05:30:53;;;;;;;1999.90;999.90;;;2.30;99.90;;;;;;4994615;28;20085;-70
2021/03/18 05:33:20;;;;;;;1999.90;999.90;;;2.30;99.90;;;;;;4984526;28;20080;-70
2021/03/18 05:35:47;;;;;;;1999.90;999.90;;;2.30;99.90;;;;;;5006507;28;20361;-70
2021/03/18 05:38:15;;;;;;;1999.90;999.90;;;2.30;99.90;;;;;;5011093;28;20481;-70
2021/03/18 05:40:44;;;;;;;1999.90;999.90;;;2.30;99.90;;;;;;5002020;28;20051;-70
2021/03/18 05:43:10;;;;;;;1999.90;999.90;;;2.30;99.90;;;;;;5003313;28;20394;-70
2021/03/18 05:45:37;;;;;;;1999.90;999.90;;;2.30;99.90;;;;;;5012151;28;20077;-70
2021/03/18 05:48:05;;;;;;;1999.90;999.90;;;2.20;99.90;;;;;;4986011;28;20498;-70
2021/03/18 05:50:33;;;;;;;1999.90;999.90;;;2.20;99.90;;;;;;5010129;28;20046;-70
2021/03/18 05:53:02;;;;;;;1999.90;999.90;;;2.20;99.90;;;;;;5011592;28;20057;-70
2021/03/18 05:55:29;;;;;;;1999.90;999.90;;;2.20;99.90;;;;;;5004624;28;20121;-70
2021/03/18 05:57:56;;;;;;;1999.90;999.90;;;2.20;99.90;;;;;;5010208;28;20129;-70
2021/03/18 06:00:23;;;;;;;1999.90;999.90;;;2.20;99.90;;;;;;5008665;28;20077;-70
2021/03/18 06:02:50;;;;;;;1999.90;999.90;;;2.20;99.90;;;;;;5006576;28;20045;-69
2021/03/18 06:05:18;;;;;;;1999.90;999.90;;;2.30;99.90;;;;;;4985675;28;20053;-70
2021/03/18 06:07:47;;;;;;;1999.90;999.90;;;2.30;99.90;;;;;;5006881;28;20045;-70
2021/03/18 06:10:17;;;;;;;1999.90;999.90;;;2.30;99.90;;;;;;5028932;28;20544;-70
2021/03/18 06:12:44;;;;;;;1999.90;999.90;;;2.30;99.90;;;;;;5006012;28;20099;-70
2021/03/18 06:15:12;;;;;;;1999.90;999.90;;;2.40;99.90;;;;;;5005594;28;20472;-70
2021/03/18 06:17:39;;;;;;;1999.90;999.90;;;2.40;99.90;;;;;;4983972;28;20546;-70
2021/03/18 06:20:11;;;;;;;1999.90;999.90;;;2.40;99.90;;;;;;4999353;28;20050;-70
2021/03/18 06:22:46;;;;;;;1999.90;999.90;;;2.40;99.90;;;;;;4984998;28;20122;-70
2021/03/18 06:25:24;;;;;;;1999.90;999.90;;;2.40;99.90;;;;;;4995475;28;20133;-70
2021/03/18 06:28:10;;;;;;;1999.90;999.90;;;2.40;99.90;;;;;;5002500;28;20419;-70
2021/03/18 06:30:38;;;;;;;1999.90;999.90;;;2.40;99.90;;;;;;5002070;28;20133;-70
2021/03/18 06:33:24;;;;;;;1999.90;999.90;;;2.40;99.90;;;;;;5004320;28;20061;-70
2021/03/18 06:35:51;;;;;;;1999.90;999.90;;;2.40;99.90;;;;;;5004918;28;20049;-70
2021/03/18 06:38:24;;;;;;;1999.90;999.90;;;2.40;99.90;;;;;;5006215;28;20042;-70
2021/03/18 06:40:50;;;;;;;1999.90;999.90;;;2.40;99.90;;;;;;5006493;28;20056;-69
2021/03/18 06:43:16;;;;;;;1999.90;999.90;;;2.40;99.90;;;;;;5008610;28;20048;-70
2021/03/18 06:45:44;;;;;;;1999.90;999.90;;;2.50;99.90;;;;;;5005938;28;20046;-70
2021/03/18 06:48:15;;;;;;;1999.90;999.90;;;2.50;99.90;;;;;;5004603;28;20058;-70
2021/03/18 06:50:46;;;;;;;1999.90;999.90;;;2.50;99.90;;;;;;5081449;28;20458;-70
2021/03/18 06:53:29;;;;;;;1999.90;999.90;;;2.50;99.90;;;;;;5003148;28;20404;-70
2021/03/18 06:55:59;;;;;;;1999.90;999.90;;;2.60;99.90;;;;;;5000631;28;20068;-70
2021/03/18 06:58:27;;;;;;;1999.90;999.90;;;2.60;99.90;;;;;;4994657;28;20699;-70
2021/03/18 07:00:59;;;;;;;1999.90;999.90;;;2.70;99.90;;;;;;4998782;28;20464;-70
2021/03/18 07:03:37;;;;;;;1999.90;999.90;;;2.70;99.90;;;;;;4998993;28;20665;-70
2021/03/18 07:06:09;;;;;;;1999.90;999.90;;;2.80;99.90;;;;;;5000901;28;20058;-70
2021/03/18 07:08:39;;;;;;;1999.90;999.90;;;2.90;99.90;;;;;;4984805;28;20138;-70
2021/03/18 07:11:22;;;;;;;;;;;3.00;99.90;;;;;;4999688;28;20480;-70
2021/03/18 07:13:49;;;;;;;1999.90;999.90;;;3.00;99.90;;;;;;5001756;28;19929;-70
2021/03/18 07:16:17;;;;;;;1999.90;999.90;;;3.10;99.90;;;;;;5006996;28;20058;-70
2021/03/18 07:18:58;;;;;;;1999.90;999.90;;;3.10;99.90;;;;;;5002514;28;20150;-70
2021/03/18 07:21:39;;;;;;;1999.90;999.90;;;3.20;99.90;;;;;;4993643;28;20042;-70
2021/03/18 07:24:22;;;;;;;1999.90;999.90;;;3.30;99.90;;;;;;4988788;28;20125;-70
2021/03/18 07:26:49;;;;;;;1999.90;999.90;;;3.40;99.90;;;;;;5013662;28;20064;-70
2021/03/18 07:29:20;;;;;;;1999.90;999.90;;;3.50;99.90;;;;;;5006823;28;20042;-70
2021/03/18 07:31:47;;;;;;;1999.90;999.90;;;3.60;99.90;;;;;;5008367;28;20094;-70
2021/03/18 07:34:14;;;;;;;1999.90;999.90;;;3.70;99.90;;;;;;5005515;28;20479;-70
2021/03/18 07:36:44;;;;;;;1999.90;999.90;;;3.70;99.90;;;;;;5004439;28;20109;-70
2021/03/18 07:39:10;;;;;;;1999.90;999.90;;;3.80;99.90;;;;;;4991178;28;20054;-70
2021/03/18 07:41:38;;;;;;;1999.90;999.90;;;3.90;99.90;;;;;;5002312;28;20064;-70
2021/03/18 07:44:06;;;;;;;1999.90;999.90;;;4.10;99.90;;;;;;4990915;28;20054;-70
2021/03/18 07:46:37;;;;;;;1999.90;999.90;;;4.20;99.90;;;;;;5001726;28;20049;-70
2021/03/18 07:49:13;;;;;;;1999.90;999.90;;;4.30;99.90;;;;;;4986200;28;20120;-70
2021/03/18 07:51:43;;;;;;;1999.90;999.90;;;4.40;99.90;;;;;;5005022;28;20385;-70
2021/03/18 07:54:17;;;;;;;1999.90;999.90;;;4.40;99.90;;;;;;4989828;28;20522;-70
2021/03/18 07:57:01;;;;;;;1999.90;999.90;;;4.50;99.90;;;;;;4994786;28;20485;-70
2021/03/18 07:59:32;;;;;;;1999.90;999.90;;;4.60;99.90;;;;;;5015438;28;20450;-70
2021/03/18 08:02:20;;;;;;;1999.90;999.90;;;4.70;99.90;;;;;;5004127;28;21371;-70
2021/03/18 08:04:49;;;;;;;1999.90;999.90;;;4.80;99.90;;;;;;5075501;28;20050;-70
2021/03/18 08:07:42;;;;;;;1999.90;999.90;;;4.90;99.90;;;;;;5007323;28;20069;-70
2021/03/18 08:10:20;;;;;;;1999.90;999.90;;;5.10;99.90;;;;;;5007039;28;20050;-70
2021/03/18 08:12:58;;;;;;;1999.90;999.90;;;5.20;99.90;;;;;;5010966;28;20042;-69
2021/03/18 08:15:44;;;;;;;1999.90;999.90;;;5.30;99.90;;;;;;5006395;28;20334;-70
2021/03/18 08:18:14;;;;;;;1999.90;999.90;;;5.40;99.90;;;;;;5005380;28;20145;-70
2021/03/18 08:20:41;;;;;;;1999.90;999.90;;;5.60;99.90;;;;;;5008004;28;20465;-70
2021/03/18 08:23:22;;;;;;;1999.90;999.90;;;5.70;99.90;;;;;;5014362;28;20077;-70
2021/03/18 08:25:56;;;;;;;1999.90;999.90;;;5.80;99.90;;;;;;5008452;28;20047;-70
2021/03/18 08:29:00;;;;;;;1999.90;999.90;;;5.90;99.90;;;;;;5007566;28;20077;-70
2021/03/18 08:31:33;;;;;;;1999.90;999.90;;;5.90;99.90;;;;;;5028538;28;20450;-70
2021/03/18 08:34:01;;;;;;;1999.90;999.90;;;6.00;99.90;;;;;;4995007;28;20050;-70
2021/03/18 08:36:56;;;;;;;1999.90;999.90;;;6.00;99.90;;;;;;4992847;28;20049;-70
2021/03/18 08:39:42;;;;;;;1999.90;999.90;;;6.00;99.90;;;;;;5005654;28;20129;-70
2021/03/18 08:42:27;;;;;;;1999.90;999.90;;;6.00;99.90;;;;;;5006544;28;20098;-70
2021/03/18 08:45:03;;;;;;;1999.90;999.90;;;6.10;99.90;;;;;;4993179;28;20129;-70
2021/03/18 08:47:44;;;;;;;1999.90;999.90;;;6.10;99.90;;;;;;4990219;28;20065;-70
2021/03/18 08:50:34;;;;;;;1999.90;999.90;;;6.10;99.90;;;;;;5004098;28;20049;-70
2021/03/18 08:53:03;;;;;;;1999.90;999.90;;;6.20;99.90;;;;;;5005235;28;20055;-70
2021/03/18 08:55:32;;;;;;;1999.90;999.90;;;6.20;99.90;;;;;;4991091;28;20046;-70
2021/03/18 08:58:00;;;;;;;1999.90;999.90;;;6.30;99.90;;;;;;5005575;28;20114;-70
2021/03/18 09:00:33;;;;;;;1999.90;999.90;;;6.30;99.90;;;;;;5008379;28;20046;-70
2021/03/18 09:03:01;;;;;;;1999.90;999.90;;;6.40;99.90;;;;;;5029681;28;20328;-70
2021/03/18 09:05:27;;;;;;;1999.90;999.90;;;6.40;99.90;;;;;;5006935;28;20050;-70
2021/03/18 09:07:59;;;;;;;1999.90;999.90;;;6.50;99.90;;;;;;4987523;28;20042;-70
2021/03/18 09:10:33;;;;;;;1999.90;999.90;;;6.50;99.90;;;;;;5005282;28;20059;-70
2021/03/18 09:13:04;;;;;;;1999.90;999.90;;;6.50;99.90;;;;;;5010879;28;20048;-70
2021/03/18 09:15:35;;;;;;;1999.90;999.90;;;6.60;99.90;;;;;;5010205;28;20419;-70
2021/03/18 09:18:30;;;;;;;1999.90;999.90;;;6.70;99.90;;;;;;5003988;28;20125;-70
2021/03/18 09:21:08;;;;;;;1999.90;999.90;;;6.80;99.90;;;;;;5007558;28;20433;-70
2021/03/18 09:23:43;;;;;;;1999.90;999.90;;;6.80;99.90;;;;;;5004446;28;20098;-70
2021/03/18 09:26:11;;;;;;;1999.90;999.90;;;6.90;99.90;;;;;;5002207;28;20088;-70
2021/03/18 09:28:45;;;;;;;1999.90;999.90;;;7.00;99.90;;;;;;5000947;28;20141;-70
2021/03/18 09:31:13;;;;;;;1999.90;999.90;;;7.10;99.90;;;;;;4975575;28;20200;-70
2021/03/18 09:33:43;;;;;;;1999.90;999.90;;;7.20;99.90;;;;;;4992815;28;20390;-69
2021/03/18 09:36:17;;;;;;;1999.90;999.90;;;7.20;99.90;;;;;;4993229;28;20042;-70
2021/03/18 09:38:57;;;;;;;1999.90;999.90;;;7.30;99.90;;;;;;4991381;28;20189;-69
2021/03/18 09:41:26;;;;;;;1999.90;999.90;;;7.30;99.90;;;;;;4992566;28;20045;-69
2021/03/18 09:44:07;;;;;;;1999.90;999.90;;;7.40;99.90;;;;;;4991248;28;20090;-70
2021/03/18 09:46:34;;;;;;;1999.90;999.90;;;7.40;99.90;;;;;;4976860;28;20077;-69
2021/03/18 09:49:01;;;;;;;1999.90;999.90;;;7.40;99.90;;;;;;4992281;28;20136;-70
2021/03/18 09:51:28;;;;;;;1999.90;999.90;;;7.40;99.90;;;;;;4992177;28;20062;-70
2021/03/18 09:53:58;;;;;;;1999.90;999.90;;;7.40;99.90;;;;;;4995307;28;20053;-70
2021/03/18 09:56:25;;;;;;;1999.90;999.90;;;7.40;99.90;;;;;;4972274;28;20046;-70
2021/03/18 09:58:53;;;;;;;1999.90;999.90;;;7.30;99.90;;;;;;4996996;28;20050;-70
2021/03/18 10:01:24;;;;;;;1999.90;999.90;;;7.40;99.90;;;;;;4991169;28;20054;-70
2021/03/18 10:03:57;;;;;;;1999.90;999.90;;;7.40;99.90;;;;;;4997691;28;20576;-70
2021/03/18 10:06:29;;;;;;;1999.90;999.90;;;7.40;99.90;;;;;;4982790;28;20440;-69
2021/03/18 10:09:25;;;;;;;1999.90;999.90;;;7.40;99.90;;;;;;4998751;28;20064;-70
2021/03/18 10:11:53;;;;;;;1999.90;999.90;;;7.30;99.90;;;;;;4990534;28;20069;-70
2021/03/18 10:14:22;;;;;;;1999.90;999.90;;;7.30;99.90;;;;;;4991533;28;20084;-70
2021/03/18 10:17:07;;;;;;;1999.90;999.90;;;7.40;99.90;;;;;;4975583;28;20065;-70
2021/03/18 10:19:37;;;;;;;1999.90;999.90;;;7.40;99.90;;;;;;5008441;28;20053;-70
2021/03/18 10:22:08;;;;;;;1999.90;999.90;;;7.40;99.90;;;;;;5003757;28;20057;-70
2021/03/18 10:24:36;;;;;;;1999.90;999.90;;;7.40;99.90;;;;;;5011463;28;20504;-70
2021/03/18 10:27:15;;;;;;;1999.90;999.90;;;7.40;99.90;;;;;;5009044;28;20041;-70
2021/03/18 10:29:42;;;;;;;1999.90;999.90;;;7.40;99.90;;;;;;5010626;28;20074;-69
2021/03/18 10:32:14;;;;;;;1999.90;999.90;;;7.50;99.90;;;;;;4991379;28;20417;-69
2021/03/18 10:34:53;;;;;;;1999.90;999.90;;;7.50;99.90;;;;;;5002724;28;20137;-70
2021/03/18 10:37:27;;;;;;;1999.90;999.90;;;7.50;99.90;;;;;;5008412;28;20482;-70
2021/03/18 10:40:08;;;;;;;1999.90;999.90;;;7.60;99.90;;;;;;4998921;28;20512;-70
2021/03/18 10:42:34;;;;;;;1999.90;999.90;;;7.70;99.90;;;;;;4987009;28;20046;-70
2021/03/18 10:45:25;;;;;;;1999.90;999.90;;;7.80;99.90;;;;;;5004675;28;20469;-70
2021/03/18 10:47:53;;;;;;;1999.90;999.90;;;8.00;99.90;;;;;;5007758;28;20448;-70
2021/03/18 10:50:22;;;;;;;;;;;8.10;99.90;;;;;;4999625;28;20128;-70
2021/03/18 10:52:53;;;;;;;1999.90;999.90;;;8.30;99.90;;;;;;5008216;28;19928;-70
2021/03/18 10:55:23;;;;;;;1999.90;999.90;;;8.60;99.90;;;;;;5006269;28;20064;-70
2021/03/18 10:58:04;;;;;;;1999.90;999.90;;;8.80;99.90;;;;;;5004765;28;20049;-70
2021/03/18 11:00:33;;;;;;;1999.90;999.90;;;8.90;99.90;;;;;;4995344;28;20075;-71
2021/03/18 11:03:08;;;;;;;1999.90;999.90;;;9.00;99.90;;;;;;5007078;28;20057;-70
2021/03/18 11:05:41;;;;;;;1999.90;999.90;;;9.10;99.90;;;;;;5001088;28;20156;-70
2021/03/18 11:08:09;;;;;;;1999.90;999.90;;;9.20;99.90;;;;;;4997232;28;20163;-70
2021/03/18 11:10:55;;;;;;;1999.90;999.90;;;9.30;99.90;;;;;;4987418;28;20042;-70
2021/03/18 11:13:27;;;;;;;1999.90;999.90;;;9.30;99.90;;;;;;5003390;28;20534;-71
2021/03/18 11:15:58;;;;;;;1999.90;999.90;;;9.40;99.90;;;;;;4997508;28;20391;-70
2021/03/18 11:18:38;;;;;;;1999.90;999.90;;;9.40;99.90;;;;;;4997449;28;20043;-70
2021/03/18 11:21:17;;;;;;;1999.90;999.90;;;9.30;99.90;;;;;;4997552;28;20043;-70
2021/03/18 11:23:44;;;;;;;1999.90;999.90;;;9.30;99.90;;;;;;4999651;28;20098;-70
2021/03/18 11:26:11;;;;;;;1999.90;999.90;;;9.20;99.90;;;;;;4994844;28;20058;-70
2021/03/18 11:28:48;;;;;;;1999.90;999.90;;;9.20;99.90;;;;;;5001207;28;20133;-70
2021/03/18 11:31:16;;;;;;;1999.90;999.90;;;9.30;99.90;;;;;;4997746;28;20061;-70
2021/03/18 11:33:42;;;;;;;1999.90;999.90;;;9.30;99.90;;;;;;4997176;28;20468;-70
2021/03/18 11:36:09;;;;;;;1999.90;999.90;;;9.40;99.90;;;;;;5001996;28;20525;-70
2021/03/18 11:38:35;;;;;;;1999.90;999.90;;;9.50;99.90;;;;;;5005360;28;20447;-70
2021/03/18 11:41:02;;;;;;;1999.90;999.90;;;9.50;99.90;;;;;;5004351;28;20043;-71
2021/03/18 11:43:28;;;;;;;1999.90;999.90;;;9.50;99.90;;;;;;4987989;28;20053;-70
2021/03/18 11:45:55;;;;;;;1999.90;999.90;;;9.50;99.90;;;;;;5004824;28;20153;-70
2021/03/18 11:48:23;;;;;;;1999.90;999.90;;;9.50;99.90;;;;;;5008995;28;20053;-70
2021/03/18 11:50:49;;;;;;;1999.90;999.90;;;9.40;99.90;;;;;;5005558;28;20051;-70
2021/03/18 11:53:16;;;;;;;1999.90;999.90;;;9.40;99.90;;;;;;5006979;28;20538;-70
2021/03/18 11:55:44;;;;;;;1999.90;999.90;;;9.30;99.90;;;;;;5008052;28;20081;-70
2021/03/18 11:58:10;;;;;;;1999.90;999.90;;;9.40;99.90;;;;;;4984712;28;20102;-69
2021/03/18 12:00:37;;;;;;;1999.90;999.90;;;9.50;99.90;;;;;;4987733;28;20077;-70
2021/03/18 12:03:06;;;;;;;1999.90;999.90;;;9.60;99.90;;;;;;5007858;28;20437;-70
2021/03/18 12:05:39;;;;;;;1999.90;999.90;;;9.80;99.90;;;;;;4976412;28;20055;-70
2021/03/18 12:08:08;;;;;;;1999.90;999.90;;;9.80;99.90;;;;;;5010035;28;20054;-70
2021/03/18 12:10:36;;;;;;;1999.90;999.90;;;9.90;99.90;;;;;;4984260;28;20415;-70
2021/03/18 12:13:03;;;;;;;1999.90;999.90;;;9.90;99.90;;;;;;5003492;28;20137;-70
2021/03/18 12:15:29;;;;;;;1999.90;999.90;;;9.90;99.90;;;;;;5001010;28;20054;-70
2021/03/18 12:17:55;;;;;;;1999.90;999.90;;;9.90;99.90;;;;;;4984665;28;20049;-70
2021/03/18 12:20:23;;;;;;;1999.90;999.90;;;9.80;99.90;;;;;;4999766;28;20078;-70
2021/03/18 12:22:49;;;;;;;1999.90;999.90;;;9.80;99.90;;;;;;4999920;28;20171;-70
2021/03/18 12:25:18;;;;;;;1999.90;999.90;;;9.80;99.90;;;;;;4979595;28;20042;-70
2021/03/18 12:27:44;;;;;;;1999.90;999.90;;;9.70;99.90;;;;;;4996506;28;20050;-70
2021/03/18 12:30:13;;;;;;;1999.90;999.90;;;9.70;99.90;;;;;;5001091;28;20085;-70
2021/03/18 12:32:41;;;;;;;1999.90;999.90;;;9.60;99.90;;;;;;4997254;28;20054;-70